sensor_id;sensor_type;location;lat;lon;timestamp;P1;durP1;ratioP1;P2;durP2;ratioP2
68821;SDS011;55834;50.870;4.606;2022-12-29T00:01:39;0.90;;;0.80;;
68821;SDS011;55834;50.870;4.606;2022-12-29T00:04:04;2.50;;;0.80;;
68821;SDS011;55834;50.870;4.606;2022-12-29T00:06:31;1.08;;;0.63;;
68821;SDS011;55834;50.870;4.606;2022-12-29T00:08:56;0.75;;;0.50;;
68821;SDS011;55834;50.870;4.606;2022-12-29T00:11:23;1.35;;;0.68;;
68821;SDS011;55834;50.870;4.606;2022-12-29T00:13:50;1.52;;;0.85;;
68821;SDS011;55834;50.870;4.606;2022-12-29T00:16:34;1.60;;;1.00;;
68821;SDS011;55834;50.870;4.606;2022-12-29T00:19:00;0.77;;;0.40;;
68821;SDS011;55834;50.870;4.606;2022-12-29T00:21:27;2.67;;;1.15;;
68821;SDS011;55834;50.870;4.606;2022-12-29T00:24:12;0.85;;;0.45;;
68821;SDS011;55834;50.870;4.606;2022-12-29T00:26:55;1.80;;;0.85;;
68821;SDS011;55834;50.870;4.606;2022-12-29T00:29:43;1.40;;;0.40;;
68821;SDS011;55834;50.870;4.606;2022-12-29T00:32:27;2.95;;;0.50;;
68821;SDS011;55834;50.870;4.606;2022-12-29T00:35:12;1.60;;;0.45;;
68821;SDS011;55834;50.870;4.606;2022-12-29T00:37:41;1.48;;;0.40;;
68821;SDS011;55834;50.870;4.606;2022-12-29T00:40:27;1.38;;;0.93;;
68821;SDS011;55834;50.870;4.606;2022-12-29T00:43:12;0.47;;;0.40;;
68821;SDS011;55834;50.870;4.606;2022-12-29T00:45:56;0.90;;;0.38;;
68821;SDS011;55834;50.870;4.606;2022-12-29T00:48:21;0.90;;;0.50;;
68821;SDS011;55834;50.870;4.606;2022-12-29T00:51:06;2.33;;;0.55;;
68821;SDS011;55834;50.870;4.606;2022-12-29T00:53:32;2.97;;;0.70;;
68821;SDS011;55834;50.870;4.606;2022-12-29T00:55:58;0.95;;;0.60;;
68821;SDS011;55834;50.870;4.606;2022-12-29T00:58:26;1.83;;;0.63;;
68821;SDS011;55834;50.870;4.606;2022-12-29T01:00:52;2.20;;;0.38;;
68821;SDS011;55834;50.870;4.606;2022-12-29T01:03:17;2.03;;;0.40;;
68821;SDS011;55834;50.870;4.606;2022-12-29T01:05:43;0.37;;;0.37;;
68821;SDS011;55834;50.870;4.606;2022-12-29T01:08:09;4.85;;;0.43;;
68821;SDS011;55834;50.870;4.606;2022-12-29T01:10:34;1.58;;;0.35;;
68821;SDS011;55834;50.870;4.606;2022-12-29T01:13:00;0.70;;;0.30;;
68821;SDS011;55834;50.870;4.606;2022-12-29T01:15:25;3.43;;;0.60;;
68821;SDS011;55834;50.870;4.606;2022-12-29T01:17:50;1.13;;;0.90;;
68821;SDS011;55834;50.870;4.606;2022-12-29T01:20:16;1.47;;;0.80;;
68821;SDS011;55834;50.870;4.606;2022-12-29T01:22:41;2.40;;;0.63;;
68821;SDS011;55834;50.870;4.606;2022-12-29T01:25:07;1.30;;;0.40;;
68821;SDS011;55834;50.870;4.606;2022-12-29T01:27:32;2.80;;;0.65;;
68821;SDS011;55834;50.870;4.606;2022-12-29T01:29:58;1.43;;;0.70;;
68821;SDS011;55834;50.870;4.606;2022-12-29T01:32:23;1.17;;;0.40;;
68821;SDS011;55834;50.870;4.606;2022-12-29T01:34:48;1.75;;;1.63;;
68821;SDS011;55834;50.870;4.606;2022-12-29T01:37:14;1.33;;;0.70;;
68821;SDS011;55834;50.870;4.606;2022-12-29T01:39:39;3.53;;;0.40;;
68821;SDS011;55834;50.870;4.606;2022-12-29T01:42:05;0.60;;;0.52;;
68821;SDS011;55834;50.870;4.606;2022-12-29T01:50:09;2.25;;;0.65;;
68821;SDS011;55834;50.870;4.606;2022-12-29T01:52:42;1.13;;;0.60;;
68821;SDS011;55834;50.870;4.606;2022-12-29T01:55:13;1.60;;;0.98;;
68821;SDS011;55834;50.870;4.606;2022-12-29T01:57:40;4.18;;;1.40;;
68821;SDS011;55834;50.870;4.606;2022-12-29T02:00:11;1.55;;;0.57;;
68821;SDS011;55834;50.870;4.606;2022-12-29T02:02:38;2.15;;;0.40;;
68821;SDS011;55834;50.870;4.606;2022-12-29T02:05:19;2.75;;;0.47;;
68821;SDS011;55834;50.870;4.606;2022-12-29T02:07:47;1.48;;;0.40;;
68821;SDS011;55834;50.870;4.606;2022-12-29T02:10:13;0.20;;;0.15;;
68821;SDS011;55834;50.870;4.606;2022-12-29T02:12:39;1.80;;;0.30;;
68821;SDS011;55834;50.870;4.606;2022-12-29T02:15:05;0.73;;;0.40;;
68821;SDS011;55834;50.870;4.606;2022-12-29T02:17:38;0.47;;;0.10;;
68821;SDS011;55834;50.870;4.606;2022-12-29T02:28:51;0.05;;;0.05;;
68821;SDS011;55834;50.870;4.606;2022-12-29T02:31:45;1.95;;;0.20;;
68821;SDS011;55834;50.870;4.606;2022-12-29T02:36:46;0.35;;;0.10;;
68821;SDS011;55834;50.870;4.606;2022-12-29T02:39:28;1.45;;;0.25;;
68821;SDS011;55834;50.870;4.606;2022-12-29T02:42:17;0.30;;;0.10;;
68821;SDS011;55834;50.870;4.606;2022-12-29T02:50:25;2.42;;;0.50;;
68821;SDS011;55834;50.870;4.606;2022-12-29T02:52:59;1.83;;;0.25;;
68821;SDS011;55834;50.870;4.606;2022-12-29T02:55:27;0.65;;;0.10;;
68821;SDS011;55834;50.870;4.606;2022-12-29T03:00:33;3.30;;;0.47;;
68821;SDS011;55834;50.870;4.606;2022-12-29T03:03:16;2.03;;;0.30;;
68821;SDS011;55834;50.870;4.606;2022-12-29T03:08:51;1.23;;;0.22;;
68821;SDS011;55834;50.870;4.606;2022-12-29T03:11:25;0.00;;;0.00;;
68821;SDS011;55834;50.870;4.606;2022-12-29T03:14:17;1.75;;;0.20;;
68821;SDS011;55834;50.870;4.606;2022-12-29T03:20:10;0.82;;;0.20;;
68821;SDS011;55834;50.870;4.606;2022-12-29T03:22:44;0.55;;;0.30;;
68821;SDS011;55834;50.870;4.606;2022-12-29T03:27:49;0.95;;;0.35;;
68821;SDS011;55834;50.870;4.606;2022-12-29T03:30:18;0.40;;;0.35;;
68821;SDS011;55834;50.870;4.606;2022-12-29T03:32:45;0.93;;;0.28;;
68821;SDS011;55834;50.870;4.606;2022-12-29T03:35:16;0.20;;;0.20;;
68821;SDS011;55834;50.870;4.606;2022-12-29T03:37:45;1.02;;;0.30;;
68821;SDS011;55834;50.870;4.606;2022-12-29T03:40:17;1.55;;;0.10;;
68821;SDS011;55834;50.870;4.606;2022-12-29T03:42:46;3.13;;;0.20;;
68821;SDS011;55834;50.870;4.606;2022-12-29T03:45:13;0.20;;;0.20;;
68821;SDS011;55834;50.870;4.606;2022-12-29T03:47:38;3.00;;;0.20;;
68821;SDS011;55834;50.870;4.606;2022-12-29T03:50:03;0.83;;;0.10;;
68821;SDS011;55834;50.870;4.606;2022-12-29T03:52:29;0.63;;;0.10;;
68821;SDS011;55834;50.870;4.606;2022-12-29T03:54:54;1.10;;;0.20;;
68821;SDS011;55834;50.870;4.606;2022-12-29T03:57:20;1.07;;;0.47;;
68821;SDS011;55834;50.870;4.606;2022-12-29T03:59:45;1.90;;;0.60;;
68821;SDS011;55834;50.870;4.606;2022-12-29T04:02:10;3.43;;;0.40;;
68821;SDS011;55834;50.870;4.606;2022-12-29T04:04:35;6.07;;;0.83;;
68821;SDS011;55834;50.870;4.606;2022-12-29T04:07:01;4.97;;;0.50;;
68821;SDS011;55834;50.870;4.606;2022-12-29T04:09:26;0.93;;;0.20;;
68821;SDS011;55834;50.870;4.606;2022-12-29T04:11:51;1.57;;;0.40;;
68821;SDS011;55834;50.870;4.606;2022-12-29T04:14:17;2.03;;;0.30;;
68821;SDS011;55834;50.870;4.606;2022-12-29T04:16:42;3.83;;;0.60;;
68821;SDS011;55834;50.870;4.606;2022-12-29T04:19:07;1.77;;;0.37;;
68821;SDS011;55834;50.870;4.606;2022-12-29T04:21:33;0.60;;;0.20;;
68821;SDS011;55834;50.870;4.606;2022-12-29T04:23:58;1.80;;;0.40;;
68821;SDS011;55834;50.870;4.606;2022-12-29T04:26:24;2.63;;;0.40;;
68821;SDS011;55834;50.870;4.606;2022-12-29T04:28:49;3.17;;;1.00;;
68821;SDS011;55834;50.870;4.606;2022-12-29T04:31:15;1.77;;;0.30;;
68821;SDS011;55834;50.870;4.606;2022-12-29T04:33:40;1.53;;;0.40;;
68821;SDS011;55834;50.870;4.606;2022-12-29T04:36:05;5.80;;;1.00;;
68821;SDS011;55834;50.870;4.606;2022-12-29T04:38:31;3.90;;;0.85;;
68821;SDS011;55834;50.870;4.606;2022-12-29T04:40:58;2.92;;;1.40;;
68821;SDS011;55834;50.870;4.606;2022-12-29T04:43:26;4.18;;;0.38;;
68821;SDS011;55834;50.870;4.606;2022-12-29T04:45:51;0.85;;;0.52;;
68821;SDS011;55834;50.870;4.606;2022-12-29T04:48:16;2.67;;;0.23;;
68821;SDS011;55834;50.870;4.606;2022-12-29T04:50:42;2.50;;;0.40;;
68821;SDS011;55834;50.870;4.606;2022-12-29T04:53:07;2.92;;;0.30;;
68821;SDS011;55834;50.870;4.606;2022-12-29T04:55:33;1.30;;;0.30;;
68821;SDS011;55834;50.870;4.606;2022-12-29T04:57:58;2.50;;;0.30;;
68821;SDS011;55834;50.870;4.606;2022-12-29T05:00:24;2.17;;;0.40;;
68821;SDS011;55834;50.870;4.606;2022-12-29T05:02:49;2.07;;;0.60;;
68821;SDS011;55834;50.870;4.606;2022-12-29T05:05:15;3.05;;;0.40;;
68821;SDS011;55834;50.870;4.606;2022-12-29T05:07:41;4.13;;;0.40;;
68821;SDS011;55834;50.870;4.606;2022-12-29T05:10:06;2.22;;;0.60;;
68821;SDS011;55834;50.870;4.606;2022-12-29T05:12:33;2.35;;;0.88;;
68821;SDS011;55834;50.870;4.606;2022-12-29T05:14:59;8.38;;;0.93;;
68821;SDS011;55834;50.870;4.606;2022-12-29T05:17:25;4.55;;;0.90;;
68821;SDS011;55834;50.870;4.606;2022-12-29T05:19:51;2.35;;;0.80;;
68821;SDS011;55834;50.870;4.606;2022-12-29T05:22:16;2.63;;;1.07;;
68821;SDS011;55834;50.870;4.606;2022-12-29T05:24:41;9.20;;;1.52;;
68821;SDS011;55834;50.870;4.606;2022-12-29T05:27:07;2.90;;;1.17;;
68821;SDS011;55834;50.870;4.606;2022-12-29T05:29:32;1.73;;;0.70;;
68821;SDS011;55834;50.870;4.606;2022-12-29T05:31:57;1.70;;;0.67;;
68821;SDS011;55834;50.870;4.606;2022-12-29T05:34:23;2.07;;;0.63;;
68821;SDS011;55834;50.870;4.606;2022-12-29T05:36:48;1.20;;;0.27;;
68821;SDS011;55834;50.870;4.606;2022-12-29T05:39:13;2.20;;;0.60;;
68821;SDS011;55834;50.870;4.606;2022-12-29T05:41:39;3.23;;;0.50;;
68821;SDS011;55834;50.870;4.606;2022-12-29T05:44:04;3.67;;;1.53;;
68821;SDS011;55834;50.870;4.606;2022-12-29T05:46:30;2.40;;;0.60;;
68821;SDS011;55834;50.870;4.606;2022-12-29T05:48:55;3.60;;;0.80;;
68821;SDS011;55834;50.870;4.606;2022-12-29T05:51:20;1.53;;;0.33;;
68821;SDS011;55834;50.870;4.606;2022-12-29T05:53:46;4.33;;;0.80;;
68821;SDS011;55834;50.870;4.606;2022-12-29T05:56:11;6.57;;;0.87;;
68821;SDS011;55834;50.870;4.606;2022-12-29T05:58:36;0.43;;;0.40;;
68821;SDS011;55834;50.870;4.606;2022-12-29T06:01:02;5.23;;;0.63;;
68821;SDS011;55834;50.870;4.606;2022-12-29T06:03:27;3.87;;;0.40;;
68821;SDS011;55834;50.870;4.606;2022-12-29T06:05:52;3.33;;;1.23;;
68821;SDS011;55834;50.870;4.606;2022-12-29T06:08:18;4.80;;;0.93;;
68821;SDS011;55834;50.870;4.606;2022-12-29T06:10:43;3.03;;;0.60;;
68821;SDS011;55834;50.870;4.606;2022-12-29T06:13:08;3.13;;;0.43;;
68821;SDS011;55834;50.870;4.606;2022-12-29T06:15:34;3.35;;;0.43;;
68821;SDS011;55834;50.870;4.606;2022-12-29T06:18:00;5.22;;;0.68;;
68821;SDS011;55834;50.870;4.606;2022-12-29T06:20:25;4.57;;;0.50;;
68821;SDS011;55834;50.870;4.606;2022-12-29T06:22:50;2.47;;;0.70;;
68821;SDS011;55834;50.870;4.606;2022-12-29T06:25:16;4.18;;;0.45;;
68821;SDS011;55834;50.870;4.606;2022-12-29T06:27:42;7.75;;;0.60;;
68821;SDS011;55834;50.870;4.606;2022-12-29T06:30:07;3.58;;;0.70;;
68821;SDS011;55834;50.870;4.606;2022-12-29T06:32:34;1.67;;;0.60;;
68821;SDS011;55834;50.870;4.606;2022-12-29T06:35:00;6.15;;;0.40;;
68821;SDS011;55834;50.870;4.606;2022-12-29T06:37:25;2.38;;;0.57;;
68821;SDS011;55834;50.870;4.606;2022-12-29T06:39:51;2.70;;;0.60;;
68821;SDS011;55834;50.870;4.606;2022-12-29T06:42:16;4.77;;;0.80;;
68821;SDS011;55834;50.870;4.606;2022-12-29T06:44:41;2.47;;;0.60;;
68821;SDS011;55834;50.870;4.606;2022-12-29T06:47:06;7.80;;;1.27;;
68821;SDS011;55834;50.870;4.606;2022-12-29T06:49:32;3.53;;;1.07;;
68821;SDS011;55834;50.870;4.606;2022-12-29T06:51:57;10.27;;;1.87;;
68821;SDS011;55834;50.870;4.606;2022-12-29T06:54:24;5.65;;;1.58;;
68821;SDS011;55834;50.870;4.606;2022-12-29T06:56:50;3.22;;;1.73;;
68821;SDS011;55834;50.870;4.606;2022-12-29T06:59:15;4.00;;;0.57;;
68821;SDS011;55834;50.870;4.606;2022-12-29T07:01:40;4.07;;;0.43;;
68821;SDS011;55834;50.870;4.606;2022-12-29T07:04:06;6.07;;;1.13;;
68821;SDS011;55834;50.870;4.606;2022-12-29T07:06:31;6.03;;;1.10;;
68821;SDS011;55834;50.870;4.606;2022-12-29T07:08:56;3.33;;;0.40;;
68821;SDS011;55834;50.870;4.606;2022-12-29T07:11:22;5.45;;;1.17;;
68821;SDS011;55834;50.870;4.606;2022-12-29T07:13:48;4.10;;;1.27;;
68821;SDS011;55834;50.870;4.606;2022-12-29T07:16:14;6.65;;;2.05;;
68821;SDS011;55834;50.870;4.606;2022-12-29T07:18:39;6.18;;;1.02;;
68821;SDS011;55834;50.870;4.606;2022-12-29T07:21:04;3.23;;;1.27;;
68821;SDS011;55834;50.870;4.606;2022-12-29T07:23:30;5.18;;;0.93;;
68821;SDS011;55834;50.870;4.606;2022-12-29T07:26:00;3.60;;;0.75;;
68821;SDS011;55834;50.870;4.606;2022-12-29T07:28:33;9.02;;;1.25;;
68821;SDS011;55834;50.870;4.606;2022-12-29T07:33:25;7.33;;;1.63;;
68821;SDS011;55834;50.870;4.606;2022-12-29T07:35:53;3.53;;;0.52;;
68821;SDS011;55834;50.870;4.606;2022-12-29T07:38:18;7.87;;;2.13;;
68821;SDS011;55834;50.870;4.606;2022-12-29T07:40:43;6.30;;;0.53;;
68821;SDS011;55834;50.870;4.606;2022-12-29T07:43:09;5.55;;;0.77;;
68821;SDS011;55834;50.870;4.606;2022-12-29T07:45:35;1.90;;;0.45;;
68821;SDS011;55834;50.870;4.606;2022-12-29T07:48:02;5.97;;;1.00;;
68821;SDS011;55834;50.870;4.606;2022-12-29T07:50:30;4.32;;;1.08;;
68821;SDS011;55834;50.870;4.606;2022-12-29T07:52:56;5.73;;;1.10;;
68821;SDS011;55834;50.870;4.606;2022-12-29T07:55:21;4.13;;;1.45;;
68821;SDS011;55834;50.870;4.606;2022-12-29T07:57:46;6.30;;;0.70;;
68821;SDS011;55834;50.870;4.606;2022-12-29T08:00:12;2.80;;;0.33;;
68821;SDS011;55834;50.870;4.606;2022-12-29T08:02:38;6.28;;;0.88;;
68821;SDS011;55834;50.870;4.606;2022-12-29T08:05:03;7.03;;;1.38;;
68821;SDS011;55834;50.870;4.606;2022-12-29T08:07:29;6.28;;;1.17;;
68821;SDS011;55834;50.870;4.606;2022-12-29T08:09:55;3.73;;;1.30;;
68821;SDS011;55834;50.870;4.606;2022-12-29T08:12:21;7.13;;;1.45;;
68821;SDS011;55834;50.870;4.606;2022-12-29T08:14:46;7.43;;;1.20;;
68821;SDS011;55834;50.870;4.606;2022-12-29T08:17:11;4.40;;;1.03;;
68821;SDS011;55834;50.870;4.606;2022-12-29T08:19:37;8.70;;;1.53;;
68821;SDS011;55834;50.870;4.606;2022-12-29T08:22:03;4.60;;;0.82;;
68821;SDS011;55834;50.870;4.606;2022-12-29T08:24:28;4.18;;;1.42;;
68821;SDS011;55834;50.870;4.606;2022-12-29T08:26:53;5.22;;;1.25;;
68821;SDS011;55834;50.870;4.606;2022-12-29T08:29:19;8.70;;;1.15;;
68821;SDS011;55834;50.870;4.606;2022-12-29T08:31:46;6.78;;;1.73;;
68821;SDS011;55834;50.870;4.606;2022-12-29T08:34:12;5.25;;;1.00;;
68821;SDS011;55834;50.870;4.606;2022-12-29T08:36:37;7.30;;;2.43;;
68821;SDS011;55834;50.870;4.606;2022-12-29T08:39:02;5.07;;;1.00;;
68821;SDS011;55834;50.870;4.606;2022-12-29T08:41:28;6.97;;;2.55;;
68821;SDS011;55834;50.870;4.606;2022-12-29T08:43:53;5.25;;;1.95;;
68821;SDS011;55834;50.870;4.606;2022-12-29T08:46:19;20.88;;;6.78;;
68821;SDS011;55834;50.870;4.606;2022-12-29T08:48:44;17.63;;;6.63;;
68821;SDS011;55834;50.870;4.606;2022-12-29T08:51:09;17.95;;;6.18;;
68821;SDS011;55834;50.870;4.606;2022-12-29T08:53:35;16.83;;;4.87;;
68821;SDS011;55834;50.870;4.606;2022-12-29T08:56:00;2.83;;;0.70;;
68821;SDS011;55834;50.870;4.606;2022-12-29T08:58:27;14.13;;;3.75;;
68821;SDS011;55834;50.870;4.606;2022-12-29T09:00:53;3.90;;;1.20;;
68821;SDS011;55834;50.870;4.606;2022-12-29T09:03:19;9.25;;;2.08;;
68821;SDS011;55834;50.870;4.606;2022-12-29T09:05:47;6.75;;;2.08;;
68821;SDS011;55834;50.870;4.606;2022-12-29T09:08:16;6.10;;;1.75;;
68821;SDS011;55834;50.870;4.606;2022-12-29T09:10:41;4.97;;;1.52;;
68821;SDS011;55834;50.870;4.606;2022-12-29T09:13:07;8.27;;;1.83;;
68821;SDS011;55834;50.870;4.606;2022-12-29T09:15:32;4.40;;;1.47;;
68821;SDS011;55834;50.870;4.606;2022-12-29T09:17:57;4.03;;;0.63;;
68821;SDS011;55834;50.870;4.606;2022-12-29T09:20:23;8.27;;;1.30;;
68821;SDS011;55834;50.870;4.606;2022-12-29T09:22:48;3.63;;;0.77;;
68821;SDS011;55834;50.870;4.606;2022-12-29T09:25:15;6.95;;;1.67;;
68821;SDS011;55834;50.870;4.606;2022-12-29T09:27:41;6.32;;;3.08;;
68821;SDS011;55834;50.870;4.606;2022-12-29T09:30:07;5.88;;;1.58;;
68821;SDS011;55834;50.870;4.606;2022-12-29T09:32:35;4.88;;;0.90;;
68821;SDS011;55834;50.870;4.606;2022-12-29T09:35:00;7.50;;;1.15;;
68821;SDS011;55834;50.870;4.606;2022-12-29T09:37:26;4.93;;;1.52;;
68821;SDS011;55834;50.870;4.606;2022-12-29T09:39:52;9.93;;;1.10;;
68821;SDS011;55834;50.870;4.606;2022-12-29T09:42:32;5.93;;;1.50;;
68821;SDS011;55834;50.870;4.606;2022-12-29T09:45:06;3.50;;;1.65;;
68821;SDS011;55834;50.870;4.606;2022-12-29T09:47:43;5.30;;;1.20;;
68821;SDS011;55834;50.870;4.606;2022-12-29T09:55:28;9.25;;;1.23;;
68821;SDS011;55834;50.870;4.606;2022-12-29T10:00:37;5.22;;;1.20;;
68821;SDS011;55834;50.870;4.606;2022-12-29T10:03:20;7.88;;;1.67;;
68821;SDS011;55834;50.870;4.606;2022-12-29T10:08:44;10.85;;;2.25;;
68821;SDS011;55834;50.870;4.606;2022-12-29T10:24:51;7.63;;;1.15;;
68821;SDS011;55834;50.870;4.606;2022-12-29T10:27:20;7.47;;;1.45;;
68821;SDS011;55834;50.870;4.606;2022-12-29T10:29:51;4.65;;;1.52;;
68821;SDS011;55834;50.870;4.606;2022-12-29T10:34:56;10.05;;;2.15;;
68821;SDS011;55834;50.870;4.606;2022-12-29T10:37:34;4.15;;;1.05;;
68821;SDS011;55834;50.870;4.606;2022-12-29T10:40:03;6.40;;;1.55;;
68821;SDS011;55834;50.870;4.606;2022-12-29T10:42:41;4.15;;;0.98;;
68821;SDS011;55834;50.870;4.606;2022-12-29T10:45:14;9.02;;;1.67;;
68821;SDS011;55834;50.870;4.606;2022-12-29T10:47:52;6.30;;;0.90;;
68821;SDS011;55834;50.870;4.606;2022-12-29T10:50:22;8.25;;;1.02;;
68821;SDS011;55834;50.870;4.606;2022-12-29T10:52:49;6.65;;;1.17;;
68821;SDS011;55834;50.870;4.606;2022-12-29T10:55:19;7.85;;;1.25;;
68821;SDS011;55834;50.870;4.606;2022-12-29T10:57:49;7.63;;;1.13;;
68821;SDS011;55834;50.870;4.606;2022-12-29T11:00:19;3.03;;;0.90;;
68821;SDS011;55834;50.870;4.606;2022-12-29T11:08:24;7.00;;;1.30;;
68821;SDS011;55834;50.870;4.606;2022-12-29T11:11:03;6.65;;;2.13;;
68821;SDS011;55834;50.870;4.606;2022-12-29T11:13:34;5.20;;;1.13;;
68821;SDS011;55834;50.870;4.606;2022-12-29T11:16:11;5.15;;;1.10;;
68821;SDS011;55834;50.870;4.606;2022-12-29T11:18:37;5.63;;;1.10;;
68821;SDS011;55834;50.870;4.606;2022-12-29T11:21:10;6.70;;;1.27;;
68821;SDS011;55834;50.870;4.606;2022-12-29T11:24:05;6.32;;;1.08;;
68821;SDS011;55834;50.870;4.606;2022-12-29T11:26:45;4.03;;;0.88;;
68821;SDS011;55834;50.870;4.606;2022-12-29T11:34:08;5.03;;;0.88;;
68821;SDS011;55834;50.870;4.606;2022-12-29T11:36:39;6.63;;;1.15;;
68821;SDS011;55834;50.870;4.606;2022-12-29T11:39:05;4.60;;;0.73;;
68821;SDS011;55834;50.870;4.606;2022-12-29T11:41:30;12.77;;;1.45;;
68821;SDS011;55834;50.870;4.606;2022-12-29T11:43:57;9.38;;;2.22;;
68821;SDS011;55834;50.870;4.606;2022-12-29T11:46:28;10.23;;;1.55;;
68821;SDS011;55834;50.870;4.606;2022-12-29T11:48:57;6.13;;;1.80;;
68821;SDS011;55834;50.870;4.606;2022-12-29T11:51:27;5.35;;;1.67;;
68821;SDS011;55834;50.870;4.606;2022-12-29T11:53:56;6.35;;;1.92;;
68821;SDS011;55834;50.870;4.606;2022-12-29T11:56:57;8.38;;;1.30;;
68821;SDS011;55834;50.870;4.606;2022-12-29T12:04:46;3.50;;;1.23;;
68821;SDS011;55834;50.870;4.606;2022-12-29T12:07:17;6.82;;;1.50;;
68821;SDS011;55834;50.870;4.606;2022-12-29T12:09:50;7.28;;;1.20;;
68821;SDS011;55834;50.870;4.606;2022-12-29T12:12:25;5.30;;;1.63;;
68821;SDS011;55834;50.870;4.606;2022-12-29T12:18:47;7.13;;;0.90;;
68821;SDS011;55834;50.870;4.606;2022-12-29T12:24:48;7.45;;;0.98;;
68821;SDS011;55834;50.870;4.606;2022-12-29T12:27:57;8.45;;;3.17;;
68821;SDS011;55834;50.870;4.606;2022-12-29T12:30:44;4.75;;;1.17;;
68821;SDS011;55834;50.870;4.606;2022-12-29T12:33:41;5.22;;;1.23;;
68821;SDS011;55834;50.870;4.606;2022-12-29T12:41:41;6.03;;;1.30;;
68821;SDS011;55834;50.870;4.606;2022-12-29T12:47:49;2.97;;;0.70;;
68821;SDS011;55834;50.870;4.606;2022-12-29T12:53:26;6.22;;;1.75;;
68821;SDS011;55834;50.870;4.606;2022-12-29T12:56:21;12.63;;;2.85;;
68821;SDS011;55834;50.870;4.606;2022-12-29T12:59:21;6.07;;;0.80;;
68821;SDS011;55834;50.870;4.606;2022-12-29T13:05:29;3.92;;;0.75;;
68821;SDS011;55834;50.870;4.606;2022-12-29T13:08:21;2.17;;;0.88;;
68821;SDS011;55834;50.870;4.606;2022-12-29T13:24:47;5.55;;;1.05;;
68821;SDS011;55834;50.870;4.606;2022-12-29T13:28:03;2.38;;;0.75;;
68821;SDS011;55834;50.870;4.606;2022-12-29T13:30:57;5.50;;;1.10;;
68821;SDS011;55834;50.870;4.606;2022-12-29T13:36:16;3.63;;;0.82;;
68821;SDS011;55834;50.870;4.606;2022-12-29T13:38:48;6.43;;;1.33;;
68821;SDS011;55834;50.870;4.606;2022-12-29T13:46:54;10.93;;;1.88;;
68821;SDS011;55834;50.870;4.606;2022-12-29T13:49:20;5.80;;;1.05;;
68821;SDS011;55834;50.870;4.606;2022-12-29T13:52:15;6.38;;;1.23;;
68821;SDS011;55834;50.870;4.606;2022-12-29T13:58:20;3.95;;;1.13;;
68821;SDS011;55834;50.870;4.606;2022-12-29T14:00:56;6.72;;;1.45;;
68821;SDS011;55834;50.870;4.606;2022-12-29T14:06:24;15.98;;;2.30;;
68821;SDS011;55834;50.870;4.606;2022-12-29T14:08:56;6.28;;;1.50;;
68821;SDS011;55834;50.870;4.606;2022-12-29T14:11:34;3.70;;;0.77;;
68821;SDS011;55834;50.870;4.606;2022-12-29T14:16:45;4.20;;;1.83;;
68821;SDS011;55834;50.870;4.606;2022-12-29T14:19:13;9.15;;;1.88;;
68821;SDS011;55834;50.870;4.606;2022-12-29T14:21:39;10.15;;;1.85;;
68821;SDS011;55834;50.870;4.606;2022-12-29T14:34:51;5.38;;;1.52;;
68821;SDS011;55834;50.870;4.606;2022-12-29T14:42:52;3.75;;;2.00;;
68821;SDS011;55834;50.870;4.606;2022-12-29T14:47:46;8.93;;;1.27;;
68821;SDS011;55834;50.870;4.606;2022-12-29T14:50:14;10.93;;;1.42;;
68821;SDS011;55834;50.870;4.606;2022-12-29T14:57:40;4.45;;;1.58;;
68821;SDS011;55834;50.870;4.606;2022-12-29T15:02:42;7.15;;;1.38;;
68821;SDS011;55834;50.870;4.606;2022-12-29T15:07:55;5.40;;;0.80;;
68821;SDS011;55834;50.870;4.606;2022-12-29T15:10:22;5.38;;;0.77;;
68821;SDS011;55834;50.870;4.606;2022-12-29T15:12:54;5.63;;;1.33;;
68821;SDS011;55834;50.870;4.606;2022-12-29T15:15:21;4.97;;;1.13;;
68821;SDS011;55834;50.870;4.606;2022-12-29T15:17:48;6.95;;;1.38;;
68821;SDS011;55834;50.870;4.606;2022-12-29T15:20:21;5.38;;;1.10;;
68821;SDS011;55834;50.870;4.606;2022-12-29T15:22:50;5.28;;;1.38;;
68821;SDS011;55834;50.870;4.606;2022-12-29T15:25:19;4.32;;;0.80;;
68821;SDS011;55834;50.870;4.606;2022-12-29T15:27:51;10.35;;;1.23;;
68821;SDS011;55834;50.870;4.606;2022-12-29T15:30:19;2.65;;;1.23;;
68821;SDS011;55834;50.870;4.606;2022-12-29T15:32:46;4.20;;;1.02;;
68821;SDS011;55834;50.870;4.606;2022-12-29T15:35:32;2.13;;;0.28;;
68821;SDS011;55834;50.870;4.606;2022-12-29T15:37:59;2.67;;;0.65;;
68821;SDS011;55834;50.870;4.606;2022-12-29T15:40:29;3.15;;;1.05;;
68821;SDS011;55834;50.870;4.606;2022-12-29T15:45:37;3.05;;;0.22;;
68821;SDS011;55834;50.870;4.606;2022-12-29T15:48:03;2.13;;;1.00;;
68821;SDS011;55834;50.870;4.606;2022-12-29T15:50:32;4.15;;;0.77;;
68821;SDS011;55834;50.870;4.606;2022-12-29T15:53:02;4.68;;;1.00;;
68821;SDS011;55834;50.870;4.606;2022-12-29T15:55:35;2.20;;;0.63;;
68821;SDS011;55834;50.870;4.606;2022-12-29T15:58:04;4.50;;;0.60;;
68821;SDS011;55834;50.870;4.606;2022-12-29T16:00:40;2.15;;;0.93;;
68821;SDS011;55834;50.870;4.606;2022-12-29T16:03:12;2.88;;;0.70;;
68821;SDS011;55834;50.870;4.606;2022-12-29T16:05:39;5.82;;;1.10;;
68821;SDS011;55834;50.870;4.606;2022-12-29T16:08:22;2.97;;;0.50;;
68821;SDS011;55834;50.870;4.606;2022-12-29T16:10:53;4.45;;;0.47;;
68821;SDS011;55834;50.870;4.606;2022-12-29T16:16:08;3.08;;;0.90;;
68821;SDS011;55834;50.870;4.606;2022-12-29T16:18:40;4.97;;;1.13;;
68821;SDS011;55834;50.870;4.606;2022-12-29T16:21:06;2.85;;;1.15;;
68821;SDS011;55834;50.870;4.606;2022-12-29T16:23:41;2.90;;;0.95;;
68821;SDS011;55834;50.870;4.606;2022-12-29T16:26:16;4.18;;;1.17;;
68821;SDS011;55834;50.870;4.606;2022-12-29T16:28:43;7.82;;;1.63;;
68821;SDS011;55834;50.870;4.606;2022-12-29T16:34:41;5.03;;;1.42;;
68821;SDS011;55834;50.870;4.606;2022-12-29T16:39:54;6.32;;;1.58;;
68821;SDS011;55834;50.870;4.606;2022-12-29T16:45:16;6.75;;;1.88;;
68821;SDS011;55834;50.870;4.606;2022-12-29T16:50:42;8.43;;;0.93;;
68821;SDS011;55834;50.870;4.606;2022-12-29T16:53:25;9.82;;;1.60;;
68821;SDS011;55834;50.870;4.606;2022-12-29T16:55:53;7.78;;;1.90;;
68821;SDS011;55834;50.870;4.606;2022-12-29T16:58:24;10.15;;;1.77;;
68821;SDS011;55834;50.870;4.606;2022-12-29T17:00:54;8.95;;;1.65;;
68821;SDS011;55834;50.870;4.606;2022-12-29T17:03:20;6.22;;;2.05;;
68821;SDS011;55834;50.870;4.606;2022-12-29T17:05:46;12.68;;;2.15;;
68821;SDS011;55834;50.870;4.606;2022-12-29T17:08:18;3.20;;;1.30;;
68821;SDS011;55834;50.870;4.606;2022-12-29T17:10:48;9.15;;;1.10;;
68821;SDS011;55834;50.870;4.606;2022-12-29T17:13:37;4.72;;;1.67;;
68821;SDS011;55834;50.870;4.606;2022-12-29T17:16:03;5.30;;;1.98;;
68821;SDS011;55834;50.870;4.606;2022-12-29T17:18:32;6.47;;;1.35;;
68821;SDS011;55834;50.870;4.606;2022-12-29T17:20:57;7.45;;;1.25;;
68821;SDS011;55834;50.870;4.606;2022-12-29T17:23:23;4.57;;;1.33;;
68821;SDS011;55834;50.870;4.606;2022-12-29T17:25:48;7.23;;;1.93;;
68821;SDS011;55834;50.870;4.606;2022-12-29T17:28:47;4.97;;;1.40;;
68821;SDS011;55834;50.870;4.606;2022-12-29T17:31:05;3.05;;;1.35;;
68821;SDS011;55834;50.870;4.606;2022-12-29T17:33:34;11.27;;;2.03;;
68821;SDS011;55834;50.870;4.606;2022-12-29T17:36:02;7.93;;;1.67;;
68821;SDS011;55834;50.870;4.606;2022-12-29T17:38:29;8.63;;;2.00;;
68821;SDS011;55834;50.870;4.606;2022-12-29T17:41:03;8.02;;;1.25;;
68821;SDS011;55834;50.870;4.606;2022-12-29T17:43:33;4.60;;;1.20;;
68821;SDS011;55834;50.870;4.606;2022-12-29T17:45:59;10.50;;;2.93;;
68821;SDS011;55834;50.870;4.606;2022-12-29T17:48:24;7.57;;;2.42;;
68821;SDS011;55834;50.870;4.606;2022-12-29T17:50:50;5.47;;;1.20;;
68821;SDS011;55834;50.870;4.606;2022-12-29T17:55:47;2.72;;;1.00;;
68821;SDS011;55834;50.870;4.606;2022-12-29T17:58:17;5.37;;;1.87;;
68821;SDS011;55834;50.870;4.606;2022-12-29T18:00:43;10.63;;;2.35;;
68821;SDS011;55834;50.870;4.606;2022-12-29T18:03:15;7.60;;;1.45;;
68821;SDS011;55834;50.870;4.606;2022-12-29T18:08:08;7.60;;;1.20;;